sensor_id;sensor_type;location;lat;lon;timestamp;temperature;humidity
37204;DHT22;23098;48.054;10.636;2023-12-29T00:01:54;7.40;99.90
37204;DHT22;23098;48.054;10.636;2023-12-29T00:04:20;7.50;99.60
37204;DHT22;23098;48.054;10.636;2023-12-29T00:06:45;7.50;99.40
37204;DHT22;23098;48.054;10.636;2023-12-29T00:09:11;7.50;99.40
37204;DHT22;23098;48.054;10.636;2023-12-29T00:11:38;7.40;99.40
37204;DHT22;23098;48.054;10.636;2023-12-29T00:14:03;7.40;99.40
37204;DHT22;23098;48.054;10.636;2023-12-29T00:16:29;7.40;99.30
37204;DHT22;23098;48.054;10.636;2023-12-29T00:18:55;7.40;99.20
37204;DHT22;23098;48.054;10.636;2023-12-29T00:21:20;7.40;99.20
37204;DHT22;23098;48.054;10.636;2023-12-29T00:23:47;7.40;99.10
37204;DHT22;23098;48.054;10.636;2023-12-29T00:26:16;7.30;99.20
37204;DHT22;23098;48.054;10.636;2023-12-29T00:28:41;7.40;99.00
37204;DHT22;23098;48.054;10.636;2023-12-29T00:31:07;7.40;98.80
37204;DHT22;23098;48.054;10.636;2023-12-29T00:33:33;7.50;98.60
37204;DHT22;23098;48.054;10.636;2023-12-29T00:35:58;7.40;98.40
37204;DHT22;23098;48.054;10.636;2023-12-29T00:38:26;7.40;98.20
37204;DHT22;23098;48.054;10.636;2023-12-29T00:40:52;7.30;98.10
37204;DHT22;23098;48.054;10.636;2023-12-29T00:43:18;7.30;97.70
37204;DHT22;23098;48.054;10.636;2023-12-29T00:45:43;7.40;97.40
37204;DHT22;23098;48.054;10.636;2023-12-29T00:48:09;7.30;97.20
37204;DHT22;23098;48.054;10.636;2023-12-29T00:50:34;7.30;96.80
37204;DHT22;23098;48.054;10.636;2023-12-29T00:53:00;7.40;96.50
37204;DHT22;23098;48.054;10.636;2023-12-29T00:55:25;7.40;96.20
37204;DHT22;23098;48.054;10.636;2023-12-29T00:57:51;7.30;96.10
37204;DHT22;23098;48.054;10.636;2023-12-29T01:00:17;7.40;95.70
37204;DHT22;23098;48.054;10.636;2023-12-29T01:02:42;7.50;95.30
37204;DHT22;23098;48.054;10.636;2023-12-29T01:05:08;7.60;94.90
37204;DHT22;23098;48.054;10.636;2023-12-29T01:07:33;7.60;94.70
37204;DHT22;23098;48.054;10.636;2023-12-29T01:09:59;7.60;94.40
37204;DHT22;23098;48.054;10.636;2023-12-29T01:12:25;7.70;94.10
37204;DHT22;23098;48.054;10.636;2023-12-29T01:14:50;7.80;93.90
37204;DHT22;23098;48.054;10.636;2023-12-29T01:17:16;7.90;93.50
37204;DHT22;23098;48.054;10.636;2023-12-29T01:19:41;8.00;93.20
37204;DHT22;23098;48.054;10.636;2023-12-29T01:22:07;8.00;93.10
37204;DHT22;23098;48.054;10.636;2023-12-29T01:24:32;8.10;93.00
37204;DHT22;23098;48.054;10.636;2023-12-29T01:26:58;8.10;92.90
37204;DHT22;23098;48.054;10.636;2023-12-29T01:29:23;8.00;93.00
37204;DHT22;23098;48.054;10.636;2023-12-29T01:31:49;8.00;92.90
37204;DHT22;23098;48.054;10.636;2023-12-29T01:34:14;8.10;92.40
37204;DHT22;23098;48.054;10.636;2023-12-29T01:36:40;8.00;92.50
37204;DHT22;23098;48.054;10.636;2023-12-29T01:39:06;8.00;92.50
37204;DHT22;23098;48.054;10.636;2023-12-29T01:41:31;8.00;92.30
37204;DHT22;23098;48.054;10.636;2023-12-29T01:46:29;8.10;92.20
37204;DHT22;23098;48.054;10.636;2023-12-29T01:48:55;7.90;92.30
37204;DHT22;23098;48.054;10.636;2023-12-29T01:51:25;7.90;92.30
37204;DHT22;23098;48.054;10.636;2023-12-29T01:53:52;7.90;92.20
37204;DHT22;23098;48.054;10.636;2023-12-29T01:56:19;8.00;92.10
37204;DHT22;23098;48.054;10.636;2023-12-29T01:58:46;7.80;92.20
37204;DHT22;23098;48.054;10.636;2023-12-29T02:01:14;7.80;92.20
37204;DHT22;23098;48.054;10.636;2023-12-29T02:03:40;7.80;92.10
37204;DHT22;23098;48.054;10.636;2023-12-29T02:06:09;7.80;92.10
37204;DHT22;23098;48.054;10.636;2023-12-29T02:08:38;7.70;92.30
37204;DHT22;23098;48.054;10.636;2023-12-29T02:11:05;7.60;92.50
37204;DHT22;23098;48.054;10.636;2023-12-29T02:13:31;7.50;92.40
37204;DHT22;23098;48.054;10.636;2023-12-29T02:16:04;7.50;92.40
37204;DHT22;23098;48.054;10.636;2023-12-29T02:18:34;7.40;92.70
37204;DHT22;23098;48.054;10.636;2023-12-29T02:21:02;7.20;93.00
37204;DHT22;23098;48.054;10.636;2023-12-29T02:23:28;7.10;93.00
37204;DHT22;23098;48.054;10.636;2023-12-29T02:25:56;7.10;93.00
37204;DHT22;23098;48.054;10.636;2023-12-29T02:28:26;7.00;93.00
37204;DHT22;23098;48.054;10.636;2023-12-29T02:31:07;7.00;93.00
37204;DHT22;23098;48.054;10.636;2023-12-29T02:33:39;6.90;93.10
37204;DHT22;23098;48.054;10.636;2023-12-29T02:36:06;6.70;93.20
37204;DHT22;23098;48.054;10.636;2023-12-29T02:38:32;6.60;93.50
37204;DHT22;23098;48.054;10.636;2023-12-29T02:40:58;6.60;93.50
37204;DHT22;23098;48.054;10.636;2023-12-29T02:43:24;6.60;93.50
37204;DHT22;23098;48.054;10.636;2023-12-29T02:45:50;6.60;93.30
37204;DHT22;23098;48.054;10.636;2023-12-29T02:48:15;6.50;93.50
37204;DHT22;23098;48.054;10.636;2023-12-29T02:50:41;6.40;93.50
37204;DHT22;23098;48.054;10.636;2023-12-29T02:53:07;6.40;93.50
37204;DHT22;23098;48.054;10.636;2023-12-29T02:55:33;6.50;93.30
37204;DHT22;23098;48.054;10.636;2023-12-29T02:57:58;6.60;93.10
37204;DHT22;23098;48.054;10.636;2023-12-29T03:00:24;6.60;92.90
37204;DHT22;23098;48.054;10.636;2023-12-29T03:02:49;6.70;92.90
37204;DHT22;23098;48.054;10.636;2023-12-29T03:05:15;6.80;92.50
37204;DHT22;23098;48.054;10.636;2023-12-29T03:07:40;6.90;92.40
37204;DHT22;23098;48.054;10.636;2023-12-29T03:10:07;7.00;92.30
37204;DHT22;23098;48.054;10.636;2023-12-29T03:12:34;7.10;92.40
37204;DHT22;23098;48.054;10.636;2023-12-29T03:14:59;7.20;92.00
37204;DHT22;23098;48.054;10.636;2023-12-29T03:17:25;7.30;92.00
37204;DHT22;23098;48.054;10.636;2023-12-29T03:19:51;7.30;91.80
37204;DHT22;23098;48.054;10.636;2023-12-29T03:22:17;7.30;92.00
37204;DHT22;23098;48.054;10.636;2023-12-29T03:24:43;7.40;91.80
37204;DHT22;23098;48.054;10.636;2023-12-29T03:27:08;7.40;92.00
37204;DHT22;23098;48.054;10.636;2023-12-29T03:29:34;7.40;92.10
37204;DHT22;23098;48.054;10.636;2023-12-29T03:32:00;7.50;91.90
37204;DHT22;23098;48.054;10.636;2023-12-29T03:34:25;7.70;91.50
37204;DHT22;23098;48.054;10.636;2023-12-29T03:36:51;7.90;91.10
37204;DHT22;23098;48.054;10.636;2023-12-29T03:39:16;8.10;90.90
37204;DHT22;23098;48.054;10.636;2023-12-29T03:41:42;8.10;91.00
37204;DHT22;23098;48.054;10.636;2023-12-29T03:44:07;8.20;90.80
37204;DHT22;23098;48.054;10.636;2023-12-29T03:46:33;8.10;91.10
37204;DHT22;23098;48.054;10.636;2023-12-29T03:48:59;8.20;90.80
37204;DHT22;23098;48.054;10.636;2023-12-29T03:51:24;8.40;90.50
37204;DHT22;23098;48.054;10.636;2023-12-29T03:53:50;8.50;90.30
37204;DHT22;23098;48.054;10.636;2023-12-29T03:56:16;8.40;90.40
37204;DHT22;23098;48.054;10.636;2023-12-29T03:58:43;8.60;90.30
37204;DHT22;23098;48.054;10.636;2023-12-29T04:01:13;8.50;90.60
37204;DHT22;23098;48.054;10.636;2023-12-29T04:03:39;8.60;90.50
37204;DHT22;23098;48.054;10.636;2023-12-29T04:06:05;8.60;90.60
37204;DHT22;23098;48.054;10.636;2023-12-29T04:08:32;8.60;90.60
37204;DHT22;23098;48.054;10.636;2023-12-29T04:10:57;8.70;90.70
37204;DHT22;23098;48.054;10.636;2023-12-29T04:13:23;8.70;90.70
37204;DHT22;23098;48.054;10.636;2023-12-29T04:15:48;8.70;90.80
37204;DHT22;23098;48.054;10.636;2023-12-29T04:18:14;8.70;90.90
37204;DHT22;23098;48.054;10.636;2023-12-29T04:20:39;8.70;90.80
37204;DHT22;23098;48.054;10.636;2023-12-29T04:23:06;8.80;90.70
37204;DHT22;23098;48.054;10.636;2023-12-29T04:25:32;8.80;90.50
37204;DHT22;23098;48.054;10.636;2023-12-29T04:27:58;8.80;90.50
37204;DHT22;23098;48.054;10.636;2023-12-29T04:30:24;8.70;90.40
37204;DHT22;23098;48.054;10.636;2023-12-29T04:32:49;8.80;90.30
37204;DHT22;23098;48.054;10.636;2023-12-29T04:35:15;8.70;90.30
37204;DHT22;23098;48.054;10.636;2023-12-29T04:37:43;8.80;89.60
37204;DHT22;23098;48.054;10.636;2023-12-29T04:40:09;8.70;89.60
37204;DHT22;23098;48.054;10.636;2023-12-29T04:42:34;8.70;89.20
37204;DHT22;23098;48.054;10.636;2023-12-29T04:45:00;8.70;89.60
37204;DHT22;23098;48.054;10.636;2023-12-29T04:47:25;8.60;90.00
37204;DHT22;23098;48.054;10.636;2023-12-29T04:49:51;8.70;89.60
37204;DHT22;23098;48.054;10.636;2023-12-29T04:52:16;8.70;89.80
37204;DHT22;23098;48.054;10.636;2023-12-29T04:54:42;8.70;89.90
37204;DHT22;23098;48.054;10.636;2023-12-29T04:57:07;8.70;89.80
37204;DHT22;23098;48.054;10.636;2023-12-29T04:59:33;8.70;90.00
37204;DHT22;23098;48.054;10.636;2023-12-29T05:01:58;8.60;90.30
37204;DHT22;23098;48.054;10.636;2023-12-29T05:04:24;8.50;90.40
37204;DHT22;23098;48.054;10.636;2023-12-29T05:06:49;8.50;90.80
37204;DHT22;23098;48.054;10.636;2023-12-29T05:09:15;8.40;90.80
37204;DHT22;23098;48.054;10.636;2023-12-29T05:11:41;8.40;91.00
37204;DHT22;23098;48.054;10.636;2023-12-29T05:14:06;8.50;90.90
37204;DHT22;23098;48.054;10.636;2023-12-29T05:16:32;8.40;91.10
37204;DHT22;23098;48.054;10.636;2023-12-29T05:18:57;8.40;91.10
37204;DHT22;23098;48.054;10.636;2023-12-29T05:21:23;8.50;91.40
37204;DHT22;23098;48.054;10.636;2023-12-29T05:23:49;8.50;91.40
37204;DHT22;23098;48.054;10.636;2023-12-29T05:26:15;8.60;91.60
37204;DHT22;23098;48.054;10.636;2023-12-29T05:28:41;8.60;91.50
37204;DHT22;23098;48.054;10.636;2023-12-29T05:31:07;8.60;91.60
37204;DHT22;23098;48.054;10.636;2023-12-29T05:33:33;8.60;91.60
37204;DHT22;23098;48.054;10.636;2023-12-29T05:35:59;8.50;91.80
37204;DHT22;23098;48.054;10.636;2023-12-29T05:38:25;8.60;91.80
37204;DHT22;23098;48.054;10.636;2023-12-29T05:40:50;8.60;91.80
37204;DHT22;23098;48.054;10.636;2023-12-29T05:43:17;8.80;91.80
37204;DHT22;23098;48.054;10.636;2023-12-29T05:45:42;8.80;92.00
37204;DHT22;23098;48.054;10.636;2023-12-29T05:48:08;8.80;92.00
37204;DHT22;23098;48.054;10.636;2023-12-29T05:50:33;8.80;92.20
37204;DHT22;23098;48.054;10.636;2023-12-29T05:52:59;8.80;92.20
37204;DHT22;23098;48.054;10.636;2023-12-29T05:55:24;8.80;92.30
37204;DHT22;23098;48.054;10.636;2023-12-29T05:57:50;8.80;92.50
37204;DHT22;23098;48.054;10.636;2023-12-29T06:00:16;8.90;92.50
37204;DHT22;23098;48.054;10.636;2023-12-29T06:02:42;8.90;92.60
37204;DHT22;23098;48.054;10.636;2023-12-29T06:05:10;8.90;92.90
37204;DHT22;23098;48.054;10.636;2023-12-29T06:07:36;8.80;93.10
37204;DHT22;23098;48.054;10.636;2023-12-29T06:10:02;8.80;93.30
37204;DHT22;23098;48.054;10.636;2023-12-29T06:12:28;8.70;93.60
37204;DHT22;23098;48.054;10.636;2023-12-29T06:14:54;8.70;94.10
37204;DHT22;23098;48.054;10.636;2023-12-29T06:17:19;8.70;94.10
37204;DHT22;23098;48.054;10.636;2023-12-29T06:19:45;8.70;94.30
37204;DHT22;23098;48.054;10.636;2023-12-29T06:22:10;8.70;94.20
37204;DHT22;23098;48.054;10.636;2023-12-29T06:24:43;8.70;94.50
37204;DHT22;23098;48.054;10.636;2023-12-29T06:27:08;8.70;94.60
37204;DHT22;23098;48.054;10.636;2023-12-29T06:29:34;8.70;94.60
37204;DHT22;23098;48.054;10.636;2023-12-29T06:32:00;8.80;94.40
37204;DHT22;23098;48.054;10.636;2023-12-29T06:34:26;8.80;94.50
37204;DHT22;23098;48.054;10.636;2023-12-29T06:36:51;8.80;94.50
37204;DHT22;23098;48.054;10.636;2023-12-29T06:39:17;8.70;94.60
37204;DHT22;23098;48.054;10.636;2023-12-29T06:41:43;8.80;94.50
37204;DHT22;23098;48.054;10.636;2023-12-29T06:44:08;8.80;94.60
37204;DHT22;23098;48.054;10.636;2023-12-29T06:46:34;8.80;94.80
37204;DHT22;23098;48.054;10.636;2023-12-29T06:49:01;8.80;94.70
37204;DHT22;23098;48.054;10.636;2023-12-29T06:51:28;8.80;95.00
37204;DHT22;23098;48.054;10.636;2023-12-29T06:53:54;8.80;95.20
37204;DHT22;23098;48.054;10.636;2023-12-29T06:56:19;8.80;95.40
37204;DHT22;23098;48.054;10.636;2023-12-29T06:58:45;8.80;95.40
37204;DHT22;23098;48.054;10.636;2023-12-29T07:01:11;8.90;95.30
37204;DHT22;23098;48.054;10.636;2023-12-29T07:03:37;8.80;95.40
37204;DHT22;23098;48.054;10.636;2023-12-29T07:06:03;8.80;95.00
37204;DHT22;23098;48.054;10.636;2023-12-29T07:08:28;8.80;94.60
37204;DHT22;23098;48.054;10.636;2023-12-29T07:10:54;8.80;94.60
37204;DHT22;23098;48.054;10.636;2023-12-29T07:13:20;8.80;94.40
37204;DHT22;23098;48.054;10.636;2023-12-29T07:15:47;8.70;94.50
37204;DHT22;23098;48.054;10.636;2023-12-29T07:18:12;8.60;94.60
37204;DHT22;23098;48.054;10.636;2023-12-29T07:20:38;8.70;94.80
37204;DHT22;23098;48.054;10.636;2023-12-29T07:23:03;8.70;94.60
37204;DHT22;23098;48.054;10.636;2023-12-29T07:25:29;8.80;94.70
37204;DHT22;23098;48.054;10.636;2023-12-29T07:27:54;8.70;94.60
37204;DHT22;23098;48.054;10.636;2023-12-29T07:30:20;8.70;94.70
37204;DHT22;23098;48.054;10.636;2023-12-29T07:32:45;8.70;94.60
37204;DHT22;23098;48.054;10.636;2023-12-29T07:35:11;8.80;94.70
37204;DHT22;23098;48.054;10.636;2023-12-29T07:37:36;8.80;94.80
37204;DHT22;23098;48.054;10.636;2023-12-29T07:40:02;8.80;94.70
37204;DHT22;23098;48.054;10.636;2023-12-29T07:42:29;8.80;94.40
37204;DHT22;23098;48.054;10.636;2023-12-29T07:44:54;8.80;94.60
37204;DHT22;23098;48.054;10.636;2023-12-29T07:47:21;8.70;94.60
37204;DHT22;23098;48.054;10.636;2023-12-29T07:49:47;8.80;94.40
37204;DHT22;23098;48.054;10.636;2023-12-29T07:52:12;8.80;94.50
37204;DHT22;23098;48.054;10.636;2023-12-29T07:54:38;8.80;94.80
37204;DHT22;23098;48.054;10.636;2023-12-29T07:57:03;8.80;95.00
37204;DHT22;23098;48.054;10.636;2023-12-29T07:59:29;8.80;95.20
37204;DHT22;23098;48.054;10.636;2023-12-29T08:01:54;8.80;95.40
37204;DHT22;23098;48.054;10.636;2023-12-29T08:04:20;8.90;95.40
37204;DHT22;23098;48.054;10.636;2023-12-29T08:06:45;8.80;95.60
37204;DHT22;23098;48.054;10.636;2023-12-29T08:09:11;8.80;95.70
37204;DHT22;23098;48.054;10.636;2023-12-29T08:11:36;8.80;95.90
37204;DHT22;23098;48.054;10.636;2023-12-29T08:14:02;8.90;95.80
37204;DHT22;23098;48.054;10.636;2023-12-29T08:16:27;8.80;96.00
37204;DHT22;23098;48.054;10.636;2023-12-29T08:18:53;8.80;96.00
37204;DHT22;23098;48.054;10.636;2023-12-29T08:21:19;8.90;96.00
37204;DHT22;23098;48.054;10.636;2023-12-29T08:23:48;8.80;96.30
37204;DHT22;23098;48.054;10.636;2023-12-29T08:26:14;8.90;96.60
37204;DHT22;23098;48.054;10.636;2023-12-29T08:28:40;9.00;96.40
37204;DHT22;23098;48.054;10.636;2023-12-29T08:31:07;9.00;96.30
37204;DHT22;23098;48.054;10.636;2023-12-29T08:33:32;9.10;96.30
37204;DHT22;23098;48.054;10.636;2023-12-29T08:35:58;9.10;96.50
37204;DHT22;23098;48.054;10.636;2023-12-29T08:38:26;9.10;96.30
37204;DHT22;23098;48.054;10.636;2023-12-29T08:40:52;9.10;96.30
37204;DHT22;23098;48.054;10.636;2023-12-29T08:43:18;9.10;96.10
37204;DHT22;23098;48.054;10.636;2023-12-29T08:45:47;9.10;96.10
37204;DHT22;23098;48.054;10.636;2023-12-29T08:48:13;9.10;96.30
37204;DHT22;23098;48.054;10.636;2023-12-29T08:50:39;9.10;96.10
37204;DHT22;23098;48.054;10.636;2023-12-29T08:53:04;9.10;96.10
37204;DHT22;23098;48.054;10.636;2023-12-29T08:55:30;9.10;96.20
37204;DHT22;23098;48.054;10.636;2023-12-29T08:57:57;9.10;96.30
37204;DHT22;23098;48.054;10.636;2023-12-29T09:00:22;9.20;96.30
37204;DHT22;23098;48.054;10.636;2023-12-29T09:02:48;9.20;96.30
37204;DHT22;23098;48.054;10.636;2023-12-29T09:05:13;9.30;96.50
37204;DHT22;23098;48.054;10.636;2023-12-29T09:07:39;9.30;96.60
37204;DHT22;23098;48.054;10.636;2023-12-29T09:10:05;9.30;96.90
37204;DHT22;23098;48.054;10.636;2023-12-29T09:12:34;9.30;96.90
37204;DHT22;23098;48.054;10.636;2023-12-29T09:14:59;9.40;97.20
37204;DHT22;23098;48.054;10.636;2023-12-29T09:17:25;9.30;97.40
37204;DHT22;23098;48.054;10.636;2023-12-29T09:19:50;9.30;97.70
37204;DHT22;23098;48.054;10.636;2023-12-29T09:22:16;9.30;97.90
37204;DHT22;23098;48.054;10.636;2023-12-29T09:24:42;9.30;98.20
37204;DHT22;23098;48.054;10.636;2023-12-29T09:27:08;9.30;98.40
37204;DHT22;23098;48.054;10.636;2023-12-29T09:29:34;9.40;98.40
37204;DHT22;23098;48.054;10.636;2023-12-29T09:31:59;9.40;98.50
37204;DHT22;23098;48.054;10.636;2023-12-29T09:34:25;9.50;98.30
37204;DHT22;23098;48.054;10.636;2023-12-29T09:36:50;9.60;98.40
37204;DHT22;23098;48.054;10.636;2023-12-29T09:39:16;9.70;98.40
37204;DHT22;23098;48.054;10.636;2023-12-29T09:41:45;9.70;98.30
37204;DHT22;23098;48.054;10.636;2023-12-29T09:44:14;9.70;98.30
37204;DHT22;23098;48.054;10.636;2023-12-29T09:46:41;9.60;98.40
37204;DHT22;23098;48.054;10.636;2023-12-29T09:49:08;9.50;98.50
37204;DHT22;23098;48.054;10.636;2023-12-29T09:51:36;9.60;98.70
37204;DHT22;23098;48.054;10.636;2023-12-29T09:54:02;9.60;98.80
37204;DHT22;23098;48.054;10.636;2023-12-29T09:56:28;9.50;99.00
37204;DHT22;23098;48.054;10.636;2023-12-29T09:58:54;9.40;99.00
37204;DHT22;23098;48.054;10.636;2023-12-29T10:01:21;9.50;99.10
37204;DHT22;23098;48.054;10.636;2023-12-29T10:03:49;9.30;99.00
37204;DHT22;23098;48.054;10.636;2023-12-29T10:06:19;9.30;99.20
37204;DHT22;23098;48.054;10.636;2023-12-29T10:08:47;9.30;99.10
37204;DHT22;23098;48.054;10.636;2023-12-29T10:11:18;9.40;99.00
37204;DHT22;23098;48.054;10.636;2023-12-29T10:13:49;9.40;98.90
37204;DHT22;23098;48.054;10.636;2023-12-29T10:16:27;9.40;98.60
37204;DHT22;23098;48.054;10.636;2023-12-29T10:19:17;9.40;98.90
37204;DHT22;23098;48.054;10.636;2023-12-29T10:21:55;9.50;98.80
37204;DHT22;23098;48.054;10.636;2023-12-29T10:24:22;9.50;98.80
37204;DHT22;23098;48.054;10.636;2023-12-29T10:26:49;9.50;98.80
37204;DHT22;23098;48.054;10.636;2023-12-29T10:29:15;9.50;98.60
37204;DHT22;23098;48.054;10.636;2023-12-29T10:31:41;9.50;98.40
37204;DHT22;23098;48.054;10.636;2023-12-29T10:34:23;9.60;98.70
37204;DHT22;23098;48.054;10.636;2023-12-29T10:36:56;9.60;98.40
37204;DHT22;23098;48.054;10.636;2023-12-29T10:39:22;9.70;98.10
37204;DHT22;23098;48.054;10.636;2023-12-29T10:42:02;9.70;98.40
37204;DHT22;23098;48.054;10.636;2023-12-29T10:44:27;9.80;98.10
37204;DHT22;23098;48.054;10.636;2023-12-29T10:46:53;9.90;97.70
37204;DHT22;23098;48.054;10.636;2023-12-29T10:49:19;9.90;97.60
37204;DHT22;23098;48.054;10.636;2023-12-29T10:51:44;9.90;97.70
37204;DHT22;23098;48.054;10.636;2023-12-29T10:54:19;9.90;97.60
37204;DHT22;23098;48.054;10.636;2023-12-29T10:57:00;9.90;97.50
37204;DHT22;23098;48.054;10.636;2023-12-29T10:59:27;10.00;97.60
37204;DHT22;23098;48.054;10.636;2023-12-29T11:01:52;10.00;97.50
37204;DHT22;23098;48.054;10.636;2023-12-29T11:04:30;10.00;97.40
37204;DHT22;23098;48.054;10.636;2023-12-29T11:06:56;10.10;97.40
37204;DHT22;23098;48.054;10.636;2023-12-29T11:09:32;10.00;97.20
37204;DHT22;23098;48.054;10.636;2023-12-29T11:12:03;10.00;97.10
37204;DHT22;23098;48.054;10.636;2023-12-29T11:14:29;10.00;97.20
37204;DHT22;23098;48.054;10.636;2023-12-29T11:16:56;10.10;97.30
37204;DHT22;23098;48.054;10.636;2023-12-29T11:19:22;10.10;97.10
37204;DHT22;23098;48.054;10.636;2023-12-29T11:21:51;10.20;97.20
37204;DHT22;23098;48.054;10.636;2023-12-29T11:24:21;10.20;97.30
37204;DHT22;23098;48.054;10.636;2023-12-29T11:26:48;10.20;97.10
37204;DHT22;23098;48.054;10.636;2023-12-29T11:29:14;10.20;97.00
37204;DHT22;23098;48.054;10.636;2023-12-29T11:31:40;10.30;97.10
37204;DHT22;23098;48.054;10.636;2023-12-29T11:34:29;10.40;97.10
37204;DHT22;23098;48.054;10.636;2023-12-29T11:37:49;10.50;96.90
37204;DHT22;23098;48.054;10.636;2023-12-29T11:40:23;10.50;96.90
37204;DHT22;23098;48.054;10.636;2023-12-29T11:42:52;10.50;96.60
37204;DHT22;23098;48.054;10.636;2023-12-29T11:45:26;10.40;96.70
37204;DHT22;23098;48.054;10.636;2023-12-29T11:47:53;10.30;97.00
37204;DHT22;23098;48.054;10.636;2023-12-29T11:50:28;10.30;96.80
37204;DHT22;23098;48.054;10.636;2023-12-29T11:52:54;10.20;96.70
37204;DHT22;23098;48.054;10.636;2023-12-29T11:55:20;10.20;96.90
37204;DHT22;23098;48.054;10.636;2023-12-29T11:57:46;10.20;97.00
37204;DHT22;23098;48.054;10.636;2023-12-29T12:00:12;10.20;97.10
37204;DHT22;23098;48.054;10.636;2023-12-29T12:02:38;10.20;97.10
37204;DHT22;23098;48.054;10.636;2023-12-29T12:05:04;10.20;97.10
37204;DHT22;23098;48.054;10.636;2023-12-29T12:13:03;10.20;96.70
37204;DHT22;23098;48.054;10.636;2023-12-29T12:18:02;10.20;96.70
37204;DHT22;23098;48.054;10.636;2023-12-29T12:20:29;10.20;96.80
37204;DHT22;23098;48.054;10.636;2023-12-29T12:23:07;10.20;96.60
37204;DHT22;23098;48.054;10.636;2023-12-29T12:25:34;10.20;96.80
37204;DHT22;23098;48.054;10.636;2023-12-29T12:28:06;10.20;96.70
37204;DHT22;23098;48.054;10.636;2023-12-29T12:30:33;10.20;96.80
37204;DHT22;23098;48.054;10.636;2023-12-29T12:33:02;10.20;96.70
37204;DHT22;23098;48.054;10.636;2023-12-29T12:35:28;10.20;96.60
37204;DHT22;23098;48.054;10.636;2023-12-29T12:38:12;10.20;96.70
37204;DHT22;23098;48.054;10.636;2023-12-29T12:40:38;10.30;96.60
37204;DHT22;23098;48.054;10.636;2023-12-29T12:43:04;10.30;96.60
37204;DHT22;23098;48.054;10.636;2023-12-29T12:45:34;10.30;96.60
37204;DHT22;23098;48.054;10.636;2023-12-29T12:48:02;10.30;96.60
37204;DHT22;23098;48.054;10.636;2023-12-29T12:50:29;10.30;96.50
37204;DHT22;23098;48.054;10.636;2023-12-29T12:52:56;10.30;96.40
37204;DHT22;23098;48.054;10.636;2023-12-29T12:55:23;10.30;96.20
37204;DHT22;23098;48.054;10.636;2023-12-29T12:57:49;10.30;95.90
37204;DHT22;23098;48.054;10.636;2023-12-29T13:00:15;10.30;96.30
37204;DHT22;23098;48.054;10.636;2023-12-29T13:02:45;10.30;95.60
37204;DHT22;23098;48.054;10.636;2023-12-29T13:05:11;10.20;95.70
37204;DHT22;23098;48.054;10.636;2023-12-29T13:07:37;10.20;95.80
37204;DHT22;23098;48.054;10.636;2023-12-29T13:10:03;10.20;95.90
37204;DHT22;23098;48.054;10.636;2023-12-29T13:12:29;10.20;95.70
37204;DHT22;23098;48.054;10.636;2023-12-29T13:15:05;10.20;95.90
37204;DHT22;23098;48.054;10.636;2023-12-29T13:17:33;10.20;95.70
37204;DHT22;23098;48.054;10.636;2023-12-29T13:19:59;10.20;95.70
37204;DHT22;23098;48.054;10.636;2023-12-29T13:22:24;10.20;95.70
37204;DHT22;23098;48.054;10.636;2023-12-29T13:24:52;10.20;95.70
37204;DHT22;23098;48.054;10.636;2023-12-29T13:27:19;10.20;95.80
37204;DHT22;23098;48.054;10.636;2023-12-29T13:29:45;10.20;95.90
37204;DHT22;23098;48.054;10.636;2023-12-29T13:32:16;10.20;95.90
37204;DHT22;23098;48.054;10.636;2023-12-29T13:34:54;10.20;96.10
37204;DHT22;23098;48.054;10.636;2023-12-29T13:37:35;10.20;96.00
37204;DHT22;23098;48.054;10.636;2023-12-29T13:40:13;10.20;95.90
37204;DHT22;23098;48.054;10.636;2023-12-29T13:42:41;10.20;95.90
37204;DHT22;23098;48.054;10.636;2023-12-29T13:45:09;10.20;96.20
37204;DHT22;23098;48.054;10.636;2023-12-29T13:47:37;10.10;96.10
37204;DHT22;23098;48.054;10.636;2023-12-29T13:50:04;10.10;96.20
37204;DHT22;23098;48.054;10.636;2023-12-29T13:52:30;10.20;95.90
37204;DHT22;23098;48.054;10.636;2023-12-29T13:54:56;10.20;96.00
37204;DHT22;23098;48.054;10.636;2023-12-29T13:57:33;10.20;95.90
37204;DHT22;23098;48.054;10.636;2023-12-29T14:00:19;10.20;95.90
37204;DHT22;23098;48.054;10.636;2023-12-29T14:08:08;10.10;95.80
37204;DHT22;23098;48.054;10.636;2023-12-29T14:10:34;10.10;95.70
37204;DHT22;23098;48.054;10.636;2023-12-29T14:13:11;10.10;95.90
37204;DHT22;23098;48.054;10.636;2023-12-29T14:15:42;10.00;95.90
37204;DHT22;23098;48.054;10.636;2023-12-29T14:20:40;10.10;95.80
37204;DHT22;23098;48.054;10.636;2023-12-29T14:23:06;10.10;95.80
37204;DHT22;23098;48.054;10.636;2023-12-29T14:25:36;10.00;95.90
37204;DHT22;23098;48.054;10.636;2023-12-29T14:28:03;10.00;95.90
37204;DHT22;23098;48.054;10.636;2023-12-29T14:30:29;10.10;95.60
37204;DHT22;23098;48.054;10.636;2023-12-29T14:32:57;10.10;95.60
37204;DHT22;23098;48.054;10.636;2023-12-29T14:35:23;10.20;95.40
37204;DHT22;23098;48.054;10.636;2023-12-29T14:37:49;10.10;95.80
37204;DHT22;23098;48.054;10.636;2023-12-29T14:40:15;10.10;95.60
37204;DHT22;23098;48.054;10.636;2023-12-29T14:42:40;10.00;95.40
37204;DHT22;23098;48.054;10.636;2023-12-29T14:45:06;10.00;95.60
37204;DHT22;23098;48.054;10.636;2023-12-29T14:47:33;10.00;95.60
37204;DHT22;23098;48.054;10.636;2023-12-29T14:49:59;10.00;95.70
37204;DHT22;23098;48.054;10.636;2023-12-29T14:52:24;9.90;95.80
37204;DHT22;23098;48.054;10.636;2023-12-29T14:54:49;9.90;95.90
37204;DHT22;23098;48.054;10.636;2023-12-29T14:57:15;9.80;95.80
37204;DHT22;23098;48.054;10.636;2023-12-29T14:59:41;9.90;95.80
37204;DHT22;23098;48.054;10.636;2023-12-29T15:02:06;9.90;95.70
37204;DHT22;23098;48.054;10.636;2023-12-29T15:04:34;9.80;95.70
37204;DHT22;23098;48.054;10.636;2023-12-29T15:06:59;9.80;95.70
37204;DHT22;23098;48.054;10.636;2023-12-29T15:09:25;9.70;95.80
37204;DHT22;23098;48.054;10.636;2023-12-29T15:11:50;9.80;95.80
37204;DHT22;23098;48.054;10.636;2023-12-29T15:14:18;9.80;95.70
37204;DHT22;23098;48.054;10.636;2023-12-29T15:16:45;9.70;95.80
37204;DHT22;23098;48.054;10.636;2023-12-29T15:19:11;9.70;95.90
37204;DHT22;23098;48.054;10.636;2023-12-29T15:21:38;9.70;95.80
37204;DHT22;23098;48.054;10.636;2023-12-29T15:24:04;9.60;95.80
37204;DHT22;23098;48.054;10.636;2023-12-29T15:26:30;9.70;95.70
37204;DHT22;23098;48.054;10.636;2023-12-29T15:28:55;9.60;95.80
37204;DHT22;23098;48.054;10.636;2023-12-29T15:31:22;9.50;96.00
37204;DHT22;23098;48.054;10.636;2023-12-29T15:33:49;9.50;95.90
37204;DHT22;23098;48.054;10.636;2023-12-29T15:36:15;9.60;95.70
37204;DHT22;23098;48.054;10.636;2023-12-29T15:38:47;9.60;95.80
37204;DHT22;23098;48.054;10.636;2023-12-29T15:41:12;9.50;95.80
37204;DHT22;23098;48.054;10.636;2023-12-29T15:43:38;9.50;95.80
37204;DHT22;23098;48.054;10.636;2023-12-29T15:46:11;9.50;95.80